Time;durP1;ratioP1;P1;durP2;ratioP2;P2;SDS_P1;SDS_P2;PMS_P1;PMS_P2;Temp;Humidity;BMP_temperature;BMP_pressure;BME280_temperature;BME280_humidity;BME280_pressure;Samples;Min_cycle;Max_cycle;Signal;HPM_P1;HPM_P2
2022/06/13 00:01:37;;;;;;;6.30;1.77;;;;;;;19.39;52.54;99288.78;10413606;28;20120;-73
2022/06/13 00:06:38;;;;;;;3.22;1.30;;;;;;;19.63;52.71;99297.41;10413089;28;20057;-73
2022/06/13 00:11:39;;;;;;;4.70;1.50;;;;;;;19.74;53.44;99309.13;10413004;28;20048;-74
2022/06/13 00:16:40;;;;;;;3.97;1.50;;;;;;;19.82;54.03;99300.59;10413702;28;20080;-73
2022/06/13 00:21:41;;;;;;;5.38;1.35;;;;;;;19.86;54.16;99300.88;10412693;28;20569;-74
2022/06/13 00:26:42;;;;;;;8.45;1.40;;;;;;;19.09;54.50;99171.59;10413516;28;20119;-73
2022/06/13 00:31:42;;;;;;;3.67;1.20;;;;;;;19.87;54.70;99287.16;10412575;28;20088;-74
2022/06/13 00:36:43;;;;;;;6.40;1.63;;;;;;;19.72;55.04;99262.78;10413162;28;20049;-72
2022/06/13 00:41:45;;;;;;;5.55;1.60;;;;;;;19.92;55.04;99297.16;10412901;28;20037;-73
2022/06/13 00:46:46;;;;;;;5.32;1.60;;;;;;;19.09;55.12;99160.81;10413237;28;20049;-73
2022/06/13 00:51:54;;;;;;;5.38;1.60;;;;;;;18.93;55.48;99137.47;10412611;28;20030;-73
2022/06/13 00:56:55;;;;;;;6.97;1.73;;;;;;;19.95;54.88;99305.59;10412005;28;20048;-74
2022/06/13 01:01:57;;;;;;;10.05;1.58;;;;;;;18.41;55.33;99076.06;10411537;28;20136;-74
2022/06/13 01:07:00;;;;;;;5.72;1.48;;;;;;;19.85;55.17;99305.47;10415090;28;20141;-73
2022/06/13 01:12:02;;;;;;;32.67;3.95;;;;;;;20.00;55.71;99313.69;10419982;28;20131;-74
2022/06/13 01:17:27;;;;;;;90.38;7.22;;;;;;;19.27;55.88;99180.41;10419553;28;20072;-73
2022/06/13 01:22:43;;;;;;;9.07;1.90;;;;;;;20.04;55.76;99317.53;10419186;28;20072;-73
2022/06/13 01:28:02;;;;;;;17.77;2.10;;;;;;;20.03;55.99;99328.56;10419333;28;20041;-73
2022/06/13 01:33:21;;;;;;;8.68;1.80;;;;;;;19.98;56.15;99332.03;10418776;28;20041;-73
2022/06/13 01:38:40;;;;;;;41.13;3.33;;;;;;;19.90;55.60;99343.25;10418461;28;20180;-74
2022/06/13 01:43:41;;;;;;;15.55;2.67;;;;;;;19.95;55.68;99354.09;10418432;28;20045;-74
2022/06/13 01:49:07;;;;;;;13.57;1.67;;;;;;;20.00;56.58;99356.03;10419054;28;20045;-74
2022/06/13 01:54:14;;;;;;;12.07;1.85;;;;;;;19.93;56.19;99360.81;10417932;28;20045;-73
2022/06/13 01:59:19;;;;;;;8.70;1.45;;;;;;;19.70;56.61;99335.75;10418828;28;20432;-74
2022/06/13 02:05:07;;;;;;;18.35;2.83;;;;;;;19.44;56.93;99302.28;10417495;28;20037;-73
2022/06/13 02:10:15;;;;;;;4.50;1.52;;;;;;;19.30;55.93;99263.38;10453824;28;20475;-73
2022/06/13 02:15:33;;;;;;;16.63;2.13;;;;;;;20.05;57.87;99386.53;10453808;28;20083;-74
2022/06/13 02:20:42;;;;;;;9.13;2.25;;;;;;;19.50;58.66;99340.88;10453494;28;20512;-74
2022/06/13 02:25:49;;;;;;;59.08;5.53;;;;;;;19.77;59.23;99411.84;10453465;28;20416;-75
2022/06/13 02:30:55;;;;;;;9.02;2.03;;;;;;;19.75;58.90;99415.84;10453552;28;20650;-74
2022/06/13 02:36:05;;;;;;;5.05;1.98;;;;;;;19.55;59.42;99401.00;10451976;28;20055;-75
2022/06/13 02:41:10;;;;;;;5.40;2.40;;;;;;;19.55;60.25;99401.00;10423362;28;20053;-74
2022/06/13 02:46:30;;;;;;;12.63;2.17;;;;;;;19.73;60.84;99426.06;10416374;28;20049;-74
2022/06/13 02:51:58;;;;;;;15.15;2.03;;;;;;;19.75;61.04;99430.13;10416725;28;20400;-74
2022/06/13 03:02:50;;;;;;;8.68;1.98;;;;;;;20.02;60.48;99438.28;10387253;28;20053;-74
2022/06/13 03:08:29;;;;;;;6.95;2.05;;;;;;;20.13;61.06;99443.78;10374426;28;20533;-74
2022/06/13 03:13:55;;;;;;;7.55;1.80;;;;;;;20.26;60.67;99449.59;10372683;28;20054;-75
2022/06/13 03:19:02;;;;;;;21.98;2.88;;;;;;;19.43;59.49;99316.81;10374272;28;20097;-76
2022/06/13 03:24:28;;;;;;;13.73;2.40;;;;;;;19.73;60.30;99340.63;10410337;28;20041;-74
2022/06/13 03:29:35;;;;;;;6.20;1.60;;;;;;;20.36;58.63;99450.78;10410669;28;20033;-75
2022/06/13 03:34:41;;;;;;;6.72;2.03;;;;;;;19.97;59.04;99378.09;10412830;28;20034;-75
2022/06/13 03:39:48;;;;;;;7.55;1.83;;;;;;;20.59;58.38;99457.78;10409647;28;20044;-74
2022/06/13 03:45:16;;;;;;;5.80;1.80;;;;;;;20.70;58.57;99462.19;10412057;28;20038;-75
2022/06/13 03:50:16;;;;;;;9.60;1.63;;;;;;;20.79;58.05;99466.06;10412346;28;20045;-75
2022/06/13 03:55:30;;;;;;;14.68;2.00;;;;;;;20.10;58.37;99339.13;10393609;28;20037;-75
2022/06/13 04:00:35;;;;;;;6.47;1.60;;;;;;;20.93;57.22;99447.53;10407399;28;20037;-75
2022/06/13 04:05:53;;;;;;;5.53;1.50;;;;;;;21.25;56.60;99471.81;10410182;28;20034;-75
2022/06/13 04:11:18;;;;;;;3.10;1.50;;;;;;;20.95;56.80;99388.72;10408729;28;20501;-75
2022/06/13 04:16:25;;;;;;;21.90;5.65;;;;;;;21.85;55.81;99481.38;10394665;28;20037;-75
2022/06/13 04:21:41;;;;;;;24.48;8.13;;;;;;;21.99;55.71;99459.28;10394745;28;21099;-75
2022/06/13 04:27:08;;;;;;;17.58;5.72;;;;;;;22.42;54.76;99487.03;10387561;28;20048;-74
2022/06/13 04:32:18;;;;;;;12.27;4.90;;;;;;;22.47;55.04;99471.63;10371637;28;20045;-75
2022/06/13 04:37:22;;;;;;;13.80;4.43;;;;;;;21.99;54.62;99359.25;10371488;28;20052;-75
2022/06/13 04:42:24;;;;;;;9.88;3.22;;;;;;;22.97;53.71;99483.63;10378084;28;20037;-75
2022/06/13 04:47:25;;;;;;;12.73;3.53;;;;;;;22.47;54.36;99395.06;10379775;28;20084;-75
2022/06/13 04:52:31;;;;;;;4.47;1.60;;;;;;;23.10;54.52;99492.31;10379807;28;20034;-76
2022/06/13 04:57:33;;;;;;;4.30;1.50;;;;;;;23.14;54.35;99499.59;10380364;28;20133;-77
2022/06/13 05:02:39;;;;;;;9.40;1.77;;;;;;;22.49;54.85;99393.66;10378219;28;20041;-76
2022/06/13 05:07:40;;;;;;;22.48;1.98;;;;;;;23.27;54.62;99490.09;10378504;28;20066;-76
2022/06/13 05:12:44;;;;;;;8.30;1.60;;;;;;;23.29;54.27;99506.09;10379213;28;20038;-74
2022/06/13 05:18:21;;;;;;;13.85;2.03;;;;;;;23.64;54.67;99497.09;10377763;28;20387;-75
2022/06/13 05:24:13;;;;;;;40.22;3.22;;;;;;;23.84;53.77;99488.13;10378394;28;20046;-76
2022/06/13 05:29:14;;;;;;;5.07;1.40;;;;;;;23.86;52.42;99496.78;10376605;28;20049;-76
2022/06/13 05:34:29;;;;;;;5.75;1.60;;;;;;;23.24;51.30;99396.66;10398053;28;20033;-77
2022/06/13 05:39:30;;;;;;;23.88;2.38;;;;;;;23.92;51.33;99492.97;10407575;28;20041;-85
2022/06/13 05:44:31;;;;;;;5.50;1.40;;;;;;;23.96;51.13;99488.63;10389486;28;20049;-77
2022/06/13 05:49:32;;;;;;;14.05;2.08;;;;;;;24.15;50.84;99499.69;10376778;28;20057;-76
2022/06/13 05:54:33;;;;;;;24.38;2.78;;;;;;;24.14;50.31;99488.03;10404774;28;20068;-76
2022/06/13 05:59:34;;;;;;;16.52;1.70;;;;;;;23.98;50.88;99494.59;10408958;28;20049;-78
2022/06/13 06:04:34;;;;;;;7.10;1.50;;;;;;;24.14;50.90;99490.72;10401190;28;20090;-77
2022/06/13 06:09:35;;;;;;;6.65;1.52;;;;;;;24.31;49.85;99500.41;10388150;28;20057;-80
2022/06/13 06:14:36;;;;;;;5.88;1.70;;;;;;;24.26;49.88;99505.84;10433710;28;20103;-77
2022/06/13 06:19:37;;;;;;;3.97;1.08;;;;;;;22.93;49.94;99273.16;10416955;28;20045;-76
2022/06/13 06:24:38;;;;;;;6.80;1.55;;;;;;;24.41;49.38;99497.66;10417436;28;20030;-76
2022/06/13 06:29:39;;;;;;;6.88;1.92;;;;;;;24.40;49.28;99482.44;10416246;28;20046;-77
2022/06/13 06:34:40;;;;;;;8.50;1.52;;;;;;;24.19;48.32;99419.31;10432955;28;20065;-67
2022/06/13 06:39:42;;;;;;;10.13;1.90;;;;;;;24.90;47.53;99515.81;10417222;28;20409;-67
2022/06/13 06:44:43;;;;;;;2.75;1.38;;;;;;;24.90;47.62;99513.13;10432127;28;20045;-67
2022/06/13 06:49:47;;;;;;;12.40;1.73;;;;;;;24.20;46.58;99417.41;10408579;28;20084;-68
2022/06/13 07:00:08;;;;;;;7.45;1.60;;;;;;;24.49;46.41;99486.22;10391766;28;20054;-68
2022/06/13 07:05:11;;;;;;;6.25;1.17;;;;;;;24.39;46.87;99483.53;10412571;28;20072;-67
2022/06/13 07:10:13;;;;;;;15.32;3.22;;;;;;;23.98;44.83;99421.34;10414137;28;20599;-67
2022/06/13 07:15:14;;;;;;;14.80;3.45;;;;;;;24.78;45.16;99566.97;10414699;28;20064;-70
2022/06/13 07:20:15;;;;;;;7.13;1.70;;;;;;;24.74;45.63;99563.19;10414394;28;20040;-67
2022/06/13 07:25:22;;;;;;;12.23;2.17;;;;;;;24.73;46.13;99558.84;10413695;28;20095;-71
2022/06/13 07:30:26;;;;;;;18.73;2.40;;;;;;;24.49;46.37;99493.56;10402950;28;20140;-66
2022/06/13 07:35:29;;;;;;;4.00;1.42;;;;;;;24.14;46.35;99412.03;10396209;28;20049;-67
2022/06/13 07:40:30;;;;;;;11.77;6.80;;;;;;;24.57;46.05;99439.47;10414482;28;20051;-67
2022/06/13 07:45:35;;;;;;;7.70;2.00;;;;;;;25.22;45.10;99561.53;10414196;28;20106;-67
2022/06/13 07:50:36;;;;;;;15.32;1.88;;;;;;;25.31;45.23;99588.94;10414093;28;20132;-67
2022/06/13 07:55:38;;;;;;;12.45;2.00;;;;;;;25.34;44.88;99577.50;10413518;28;20127;-67
2022/06/13 08:00:39;;;;;;;6.57;2.30;;;;;;;24.47;43.90;99436.84;10413755;28;20044;-68
2022/06/13 08:05:40;;;;;;;7.28;1.63;;;;;;;24.46;43.77;99456.91;10413936;28;20378;-67
2022/06/13 08:10:41;;;;;;;3.53;1.23;;;;;;;24.95;44.59;99559.28;10412713;28;20157;-68
2022/06/13 08:15:43;;;;;;;8.45;1.77;;;;;;;25.08;44.13;99592.34;10413090;28;20037;-67
2022/06/13 08:20:44;;;;;;;11.57;2.05;;;;;;;24.82;44.88;99603.34;10428673;28;20046;-67
2022/06/13 08:25:46;;;;;;;13.18;1.98;;;;;;;24.01;46.48;99564.56;10410952;28;20066;-68
2022/06/13 08:30:59;;;;;;;11.13;1.55;;;;;;;23.87;48.92;99618.59;10412391;28;20072;-66
2022/06/13 08:36:00;;;;;;;12.73;1.90;;;;;;;23.60;50.19;99629.69;10412456;28;20065;-67
2022/06/13 08:41:10;;;;;;;18.88;2.03;;;;;;;23.36;53.81;99639.44;10406163;28;20037;-72
2022/06/13 08:46:16;;;;;;;11.13;1.77;;;;;;;23.07;54.14;99641.84;10411872;28;20045;-67
2022/06/13 08:51:30;;;;;;;32.72;3.10;;;;;;;22.86;55.53;99662.59;10427625;28;20041;-66
2022/06/13 08:56:36;;;;;;;12.45;3.60;;;;;;;22.32;56.19;99602.28;10409276;28;20064;-67
2022/06/13 09:01:41;;;;;;;7.38;1.80;;;;;;;22.34;57.04;99602.81;10402223;28;20460;-67
2022/06/13 09:07:02;;;;;;;11.68;1.95;;;;;;;22.07;57.08;99540.72;10377830;28;20050;-67
2022/06/13 09:12:12;;;;;;;5.25;1.70;;;;;;;22.55;61.32;99625.41;10326428;28;20060;-67
2022/06/13 09:17:23;;;;;;;5.53;1.58;;;;;;;22.14;62.32;99513.44;10305584;28;20521;-67
2022/06/13 09:22:37;;;;;;;5.68;2.00;;;;;;;23.10;61.18;99623.16;10328272;28;20048;-66
2022/06/13 09:27:43;;;;;;;;;;;;;;;23.38;56.56;99634.56;10333455;28;20046;-66
2022/06/13 09:32:51;;;;;;;3.90;1.25;;;;;;;23.13;58.58;99625.31;10336575;28;20019;-66
2022/06/13 09:38:03;;;;;;;9.93;1.38;;;;;;;23.32;58.72;99614.75;10336002;28;20038;-66
2022/06/13 09:43:28;;;;;;;3.77;1.10;;;;;;;22.85;55.77;99496.56;10336998;28;20046;-67
2022/06/13 09:48:38;;;;;;;6.35;1.48;;;;;;;23.30;57.36;99578.16;10335813;28;20442;-67
2022/06/13 09:54:18;;;;;;;7.50;1.42;;;;;;;23.61;53.12;99630.50;10336953;28;20034;-70
2022/06/13 09:59:37;;;;;;;3.92;1.40;;;;;;;23.42;53.70;99612.06;10334637;28;20054;-67
2022/06/13 10:05:03;;;;;;;3.58;1.40;;;;;;;23.55;55.21;99624.28;10333959;28;20050;-66
2022/06/13 10:10:17;;;;;;;6.13;1.60;;;;;;;23.49;54.77;99614.50;10334336;28;20518;-66
2022/06/13 10:15:35;;;;;;;;;;;;;;;23.75;53.27;99611.81;10337074;28;20437;-66
2022/06/13 10:20:46;;;;;;;7.43;1.40;;;;;;;23.48;56.55;99612.88;10335766;28;19918;-66
2022/06/13 10:25:52;;;;;;;4.70;1.40;;;;;;;23.37;55.70;99608.53;10350234;28;20146;-66
2022/06/13 10:31:11;;;;;;;4.43;1.73;;;;;;;23.39;56.25;99614.50;10334671;28;20050;-66
2022/06/13 10:36:50;;;;;;;7.60;1.92;;;;;;;23.63;55.93;99633.75;10312935;28;20046;-66
2022/06/13 10:42:01;;;;;;;4.70;1.65;;;;;;;22.68;56.69;99464.34;10341168;28;20042;-67
2022/06/13 10:47:08;;;;;;;3.95;1.33;;;;;;;23.53;56.16;99587.66;10333439;28;20038;-66
2022/06/13 10:52:19;;;;;;;6.55;1.70;;;;;;;22.52;56.08;99405.84;10330791;28;20042;-67
2022/06/13 10:57:26;;;;;;;4.65;1.48;;;;;;;23.14;55.77;99498.78;10332268;28;20502;-66
2022/06/13 11:02:27;;;;;;;4.25;1.27;;;;;;;23.64;55.47;99573.84;10328601;28;20536;-66
2022/06/13 11:07:28;;;;;;;8.90;1.70;;;;;;;23.32;55.38;99495.53;10322738;28;20055;-67
2022/06/13 11:12:36;;;;;;;5.53;1.85;;;;;;;24.10;55.63;99592.75;10317480;28;20039;-67
2022/06/13 11:23:12;;;;;;;13.63;1.33;;;;;;;23.86;53.90;99551.84;10314631;28;20058;-66
2022/06/13 11:28:15;;;;;;;3.25;1.40;;;;;;;22.66;53.88;99362.84;10316390;28;20062;-66
2022/06/13 11:33:24;;;;;;;4.35;1.40;;;;;;;23.99;54.24;99569.47;10307246;28;20077;-67
2022/06/13 11:38:37;;;;;;;5.55;1.45;;;;;;;24.06;54.37;99588.97;10307952;28;20490;-67
2022/06/13 11:43:50;;;;;;;6.63;1.33;;;;;;;24.04;53.94;99591.13;10308437;28;20114;-67
2022/06/13 11:48:51;;;;;;;7.32;2.05;;;;;;;24.14;53.76;99577.56;10310013;28;20085;-67
2022/06/13 11:53:56;;;;;;;5.47;1.27;;;;;;;24.31;53.89;99579.13;10311626;28;20043;-66
2022/06/13 11:59:02;;;;;;;3.58;1.80;;;;;;;24.23;53.91;99563.41;10306800;28;20084;-68
2022/06/13 12:04:23;;;;;;;17.20;9.57;;;;;;;24.27;55.21;99570.72;10317780;28;20096;-66
2022/06/13 12:09:31;;;;;;;57.45;31.52;;;;;;;24.19;57.29;99573.19;10309303;28;20049;-67
2022/06/13 12:14:39;;;;;;;23.65;15.13;;;;;;;23.97;57.62;99549.13;10313412;28;20058;-66
2022/06/13 12:20:01;;;;;;;14.90;6.60;;;;;;;24.13;58.22;99575.91;10307845;28;20521;-67
2022/06/13 12:25:23;;;;;;;17.00;9.37;;;;;;;23.99;57.89;99588.47;10307585;28;20050;-66
2022/06/13 12:30:49;;;;;;;92.40;53.10;;;;;;;22.87;58.25;99456.50;10311069;28;20096;-67
2022/06/13 12:35:58;;;;;;;127.47;59.60;;;;;;;23.68;58.39;99596.59;10298896;28;20465;-67
2022/06/13 12:41:28;;;;;;;23.55;13.27;;;;;;;23.34;58.08;99539.44;10302209;28;20088;-66
2022/06/13 12:46:34;;;;;;;32.42;13.63;;;;;;;23.57;57.21;99589.56;10299343;28;20560;-66
2022/06/13 12:51:47;;;;;;;10.35;4.68;;;;;;;23.63;57.11;99593.91;10310552;28;20150;-66
2022/06/13 12:57:01;;;;;;;5.07;2.00;;;;;;;23.70;57.66;99601.78;10312956;28;20046;-67
2022/06/13 13:02:39;;;;;;;25.15;10.73;;;;;;;23.68;57.82;99580.31;10311666;28;20049;-66
2022/06/13 13:08:00;;;;;;;38.25;19.65;;;;;;;23.52;57.69;99564.38;10311166;28;20066;-66
2022/06/13 13:13:04;;;;;;;58.60;24.10;;;;;;;23.37;57.63;99568.69;10325721;28;20046;-66
2022/06/13 13:18:20;;;;;;;;;;;;;;;23.58;56.39;99574.94;10318487;28;20096;-66
2022/06/13 13:23:34;;;;;;;9.88;3.40;;;;;;;23.19;57.86;99547.56;10321046;28;19976;-67
2022/06/13 13:28:41;;;;;;;6.50;2.40;;;;;;;23.13;57.64;99560.28;10312253;28;20050;-66
2022/06/13 13:34:10;;;;;;;8.93;1.92;;;;;;;23.12;58.65;99555.94;10322594;28;20072;-66
2022/06/13 13:39:16;;;;;;;10.57;1.75;;;;;;;23.03;59.18;99549.44;10315345;28;20137;-66
2022/06/13 13:44:28;;;;;;;3.88;1.67;;;;;;;22.19;60.77;99447.75;10309206;28;20034;-66
2022/06/13 13:49:40;;;;;;;7.70;2.00;;;;;;;22.73;63.89;99561.81;10318133;28;20050;-66
2022/06/13 13:54:54;;;;;;;14.23;3.15;;;;;;;22.61;68.22;99555.00;10326879;28;20038;-68
2022/06/13 14:00:01;;;;;;;6.22;2.33;;;;;;;22.37;68.01;99543.84;10313829;28;20045;-67
2022/06/13 14:05:23;;;;;;;7.38;2.45;;;;;;;22.44;70.02;99558.78;10318494;28;20045;-66
2022/06/13 14:10:26;;;;;;;4.50;1.63;;;;;;;21.22;69.38;99412.13;10314824;28;20137;-66
2022/06/13 14:15:50;;;;;;;6.60;2.38;;;;;;;22.00;72.47;99539.34;10326409;28;20045;-66
2022/06/13 14:20:52;;;;;;;8.68;2.22;;;;;;;21.80;69.80;99531.91;10314681;28;20414;-67
2022/06/13 14:25:53;;;;;;;5.53;2.10;;;;;;;21.84;69.89;99539.25;10301788;28;20061;-65
2022/06/13 14:31:08;;;;;;;11.38;3.40;;;;;;;21.90;70.06;99534.69;10322640;28;20054;-67
2022/06/13 14:36:10;;;;;;;6.03;1.92;;;;;;;22.01;69.24;99525.53;10324147;28;20629;-66
2022/06/13 14:41:36;;;;;;;4.40;1.80;;;;;;;22.07;71.53;99518.25;10317385;28;20085;-66
2022/06/13 14:47:12;;;;;;;5.93;2.28;;;;;;;21.39;71.89;99400.09;10313549;28;20063;-67
2022/06/13 14:52:23;;;;;;;4.88;1.95;;;;;;;21.50;71.37;99433.38;10320286;28;20576;-66
2022/06/13 14:57:27;;;;;;;5.20;1.90;;;;;;;22.17;71.16;99553.53;10314169;28;20478;-67
2022/06/13 15:02:28;;;;;;;;;;;;;;;22.30;68.66;99549.50;10329017;28;20053;-66
2022/06/13 15:07:54;;;;;;;5.10;1.90;;;;;;;22.20;71.59;99539.47;10318288;28;20341;-67
2022/06/13 15:12:58;;;;;;;39.63;3.55;;;;;;;21.25;71.57;99415.09;10313035;28;20046;-67
2022/06/13 15:17:59;;;;;;;14.45;2.88;;;;;;;22.03;70.63;99558.53;10308370;28;20410;-67
2022/06/13 15:23:10;;;;;;;21.17;3.15;;;;;;;21.99;73.23;99557.47;10316330;28;20043;-67
2022/06/13 15:28:17;;;;;;;11.90;3.63;;;;;;;20.68;72.01;99348.31;10306616;28;20073;-67
2022/06/13 15:33:21;;;;;;;16.20;4.35;;;;;;;22.01;71.44;99568.00;10312712;28;20126;-66
2022/06/13 15:38:29;;;;;;;29.52;4.90;;;;;;;22.00;72.09;99580.72;10311958;28;20089;-67
2022/06/13 15:43:37;;;;;;;14.48;3.50;;;;;;;21.89;72.12;99562.78;10316633;28;20043;-67
2022/06/13 15:48:43;;;;;;;9.10;2.30;;;;;;;21.19;72.14;99464.75;10309164;28;20049;-66
2022/06/13 15:53:46;;;;;;;10.40;2.50;;;;;;;21.92;71.46;99613.66;10312668;28;20039;-67
2022/06/13 15:58:55;;;;;;;7.55;2.22;;;;;;;21.96;73.34;99597.72;10319602;28;20123;-66
2022/06/13 16:03:56;;;;;;;6.28;2.38;;;;;;;21.02;71.88;99473.00;10313029;28;20057;-66
2022/06/13 16:08:57;;;;;;;9.07;2.17;;;;;;;21.37;72.48;99547.31;10330283;28;20061;-66
2022/06/13 16:13:58;;;;;;;6.07;1.98;;;;;;;21.70;72.91;99608.38;10346861;28;20417;-66
2022/06/13 16:18:59;;;;;;;4.95;2.10;;;;;;;21.46;73.18;99613.31;10331239;28;20042;-67
2022/06/13 16:24:05;;;;;;;5.22;2.08;;;;;;;21.57;75.04;99631.25;10330598;28;20034;-66
2022/06/13 16:29:07;;;;;;;3.35;1.85;;;;;;;21.29;74.05;99582.88;10324253;28;20173;-66
2022/06/13 16:34:09;;;;;;;37.15;4.20;;;;;;;21.31;74.03;99605.03;10329543;28;20042;-66
2022/06/13 16:39:20;;;;;;;9.23;2.50;;;;;;;21.39;75.60;99642.44;10315957;28;20045;-67
2022/06/13 16:44:30;;;;;;;13.15;3.25;;;;;;;21.31;75.47;99634.75;10338578;28;20037;-76
2022/06/13 16:49:40;;;;;;;5.88;3.15;;;;;;;20.52;75.84;99517.31;10337556;28;20054;-75
2022/06/13 16:54:47;;;;;;;13.90;3.42;;;;;;;21.12;76.21;99647.78;10339773;28;20034;-75
2022/06/13 16:59:53;;;;;;;21.38;9.10;;;;;;;20.99;75.62;99632.81;10354089;28;20116;-74
2022/06/13 17:04:54;;;;;;;20.77;10.32;;;;;;;19.44;75.11;99395.75;10352699;28;20049;-74
2022/06/13 17:10:02;;;;;;;20.52;8.10;;;;;;;19.40;75.51;99403.50;10337789;28;20530;-75
2022/06/13 17:15:03;;;;;;;10.45;5.25;;;;;;;20.61;76.02;99595.94;10335708;28;20050;-74
2022/06/13 17:20:13;;;;;;;9.45;5.78;;;;;;;20.61;77.53;99637.25;10336548;28;20084;-74
2022/06/13 17:25:17;;;;;;;13.85;7.15;;;;;;;20.42;77.19;99623.22;10336331;28;20038;-74
2022/06/13 17:35:31;;;;;;;12.73;7.43;;;;;;;19.84;76.73;99528.34;10337129;28;20039;-73
2022/06/13 17:40:35;;;;;;;26.50;17.15;;;;;;;19.22;77.68;99428.03;10337579;28;20038;-74
2022/06/13 17:45:37;;;;;;;16.08;9.45;;;;;;;20.68;76.87;99653.25;10336297;28;20046;-73
2022/06/13 17:50:39;;;;;;;19.65;11.82;;;;;;;20.71;76.14;99650.06;10332812;28;20521;-73
2022/06/13 17:55:40;;;;;;;20.00;9.77;;;;;;;20.70;76.07;99635.75;10330777;28;20049;-74
2022/06/13 18:00:47;;;;;;;15.40;9.00;;;;;;;20.80;76.32;99642.34;10307878;28;20042;-74
2022/06/13 18:05:48;;;;;;;11.00;6.38;;;;;;;19.95;72.10;99499.66;10293520;28;20080;-73
2022/06/13 18:10:49;;;;;;;12.73;6.45;;;;;;;20.51;70.01;99575.84;10300802;28;20500;-73
2022/06/13 18:15:51;;;;;;;8.10;3.83;;;;;;;20.95;67.67;99635.22;10315234;28;20042;-73
2022/06/13 18:20:54;;;;;;;3.17;1.98;;;;;;;21.07;63.47;99624.25;10326103;28;20042;-73
2022/06/13 18:25:55;;;;;;;5.30;1.70;;;;;;;21.30;62.11;99636.66;10333808;28;20406;-73
2022/06/13 18:30:56;;;;;;;3.65;1.95;;;;;;;21.40;60.51;99634.06;10328540;28;20054;-73
2022/06/13 18:35:57;;;;;;;3.45;2.00;;;;;;;21.19;59.06;99595.22;10320458;28;20390;-73
2022/06/13 18:41:02;;;;;;;5.00;2.08;;;;;;;21.34;58.47;99599.94;10315038;28;20037;-75
2022/06/13 18:46:03;;;;;;;3.53;1.52;;;;;;;21.64;57.47;99639.94;10327931;28;20395;-73
2022/06/13 18:51:05;;;;;;;2.83;1.30;;;;;;;20.94;56.97;99520.19;10317374;28;20494;-74
2022/06/13 18:56:06;;;;;;;4.03;1.40;;;;;;;21.09;57.03;99546.53;10310378;28;20491;-74
2022/06/13 19:01:07;;;;;;;4.03;1.38;;;;;;;21.11;56.67;99541.66;10316264;28;20042;-75
2022/06/13 19:06:12;;;;;;;5.07;1.45;;;;;;;21.72;56.03;99635.97;10310813;28;20059;-75
2022/06/13 19:11:14;;;;;;;5.20;1.50;;;;;;;21.00;56.43;99520.22;10307825;28;20046;-74
2022/06/13 19:16:18;;;;;;;2.35;1.38;;;;;;;21.59;57.14;99625.56;10311240;28;20046;-74
2022/06/13 19:21:19;;;;;;;4.45;1.60;;;;;;;20.90;57.26;99526.34;10315132;28;20065;-74
2022/06/13 19:26:20;;;;;;;4.63;1.55;;;;;;;21.50;57.67;99633.31;10324982;28;20461;-73
2022/06/13 19:31:22;;;;;;;5.18;1.50;;;;;;;20.76;57.44;99498.97;10314005;28;20042;-74
2022/06/13 19:36:23;;;;;;;3.00;1.40;;;;;;;21.70;57.68;99654.31;10311534;28;20046;-73
2022/06/13 19:41:25;;;;;;;4.07;1.77;;;;;;;20.80;58.30;99521.69;10307514;28;20046;-74
2022/06/13 19:46:25;;;;;;;3.00;1.75;;;;;;;21.67;58.72;99662.13;10309202;28;20101;-76
2022/06/13 19:51:27;;;;;;;4.57;2.15;;;;;;;20.92;59.50;99567.41;10310997;28;20041;-76
2022/06/13 19:56:31;;;;;;;3.28;1.63;;;;;;;21.55;60.08;99670.41;10313905;28;20092;-76
2022/06/13 20:01:34;;;;;;;5.50;2.10;;;;;;;19.60;60.60;99370.66;10328947;28;20514;-76
2022/06/13 20:11:59;;;;;;;12.95;3.20;;;;;;;21.31;63.42;99654.47;10291330;28;20411;-76
2022/06/13 20:17:03;;;;;;;7.45;3.20;;;;;;;21.16;64.40;99659.72;10290920;28;20046;-76
2022/06/13 20:22:06;;;;;;;7.70;3.28;;;;;;;20.90;65.96;99620.84;10291205;28;20126;-76
2022/06/13 20:27:07;;;;;;;8.82;3.47;;;;;;;21.05;65.42;99661.50;10291916;28;20051;-76
2022/06/13 20:32:10;;;;;;;7.88;3.78;;;;;;;20.10;67.20;99515.19;10306061;28;20569;-75
2022/06/13 20:37:14;;;;;;;8.38;3.70;;;;;;;20.29;67.58;99545.38;10291528;28;20038;-75
2022/06/13 20:42:16;;;;;;;6.75;4.07;;;;;;;20.42;67.96;99574.66;10290775;28;20070;-75
2022/06/13 20:47:18;;;;;;;8.45;4.10;;;;;;;20.77;68.19;99640.13;10291591;28;20515;-75
2022/06/13 20:52:19;;;;;;;6.47;3.95;;;;;;;20.84;68.64;99646.16;10291773;28;20043;-75
2022/06/13 20:57:20;;;;;;;8.23;4.40;;;;;;;20.74;69.06;99642.25;10301175;28;20092;-75
2022/06/13 21:02:22;;;;;;;11.00;4.00;;;;;;;20.49;70.15;99602.28;10291267;28;20047;-75
2022/06/13 21:07:28;;;;;;;7.78;3.78;;;;;;;20.52;71.49;99601.81;10290931;28;20058;-75
2022/06/13 21:12:29;;;;;;;11.98;4.03;;;;;;;20.64;71.67;99635.91;10291776;28;20072;-76
2022/06/13 21:17:30;;;;;;;7.20;3.35;;;;;;;20.57;72.48;99619.91;10290191;28;20133;-75
2022/06/13 21:22:34;;;;;;;8.60;3.83;;;;;;;19.84;73.18;99514.06;10292833;28;20132;-75
2022/06/13 21:27:35;;;;;;;7.95;3.53;;;;;;;20.05;73.31;99552.88;10304006;28;20498;-75
2022/06/13 21:32:36;;;;;;;9.32;4.03;;;;;;;20.35;73.69;99616.38;10337856;28;20046;-75
2022/06/13 21:37:37;;;;;;;6.85;3.47;;;;;;;20.39;73.85;99636.38;10314145;28;20550;-75
2022/06/13 21:42:40;;;;;;;7.15;3.78;;;;;;;20.34;74.37;99645.25;10297482;28;20046;-75
2022/06/13 21:47:42;;;;;;;8.40;3.55;;;;;;;19.51;74.67;99517.59;10297263;28;20042;-75
2022/06/13 21:52:42;;;;;;;6.13;3.72;;;;;;;19.96;75.68;99595.63;10296670;28;20047;-75
2022/06/13 21:57:43;;;;;;;6.22;3.35;;;;;;;19.97;75.93;99601.84;10297945;28;20133;-75
2022/06/13 22:02:44;;;;;;;6.05;3.45;;;;;;;20.12;76.28;99622.81;10296646;28;20046;-75
2022/06/13 22:07:45;;;;;;;5.75;3.38;;;;;;;20.23;76.57;99644.28;10295176;28;20534;-75
2022/06/13 22:12:48;;;;;;;6.50;3.50;;;;;;;20.21;77.42;99642.88;10296603;28;20046;-76
2022/06/13 22:17:49;;;;;;;7.43;3.60;;;;;;;19.95;77.12;99607.50;10311136;28;20458;-75
2022/06/13 22:22:50;;;;;;;7.10;3.55;;;;;;;19.95;77.72;99607.50;10295652;28;20069;-75
2022/06/13 22:27:51;;;;;;;9.32;3.63;;;;;;;20.08;78.04;99648.63;10295310;28;20043;-76
2022/06/13 22:32:53;;;;;;;11.05;4.10;;;;;;;19.98;78.39;99633.94;10297767;28;20053;-75
2022/06/13 22:37:54;;;;;;;9.93;4.00;;;;;;;19.90;78.63;99639.75;10327367;28;20050;-75
2022/06/13 22:42:57;;;;;;;8.95;3.58;;;;;;;19.76;79.62;99647.34;10346144;28;20043;-75
2022/06/13 22:53:19;;;;;;;7.97;4.28;;;;;;;19.71;79.68;99632.97;10295343;28;20041;-75
2022/06/13 22:58:20;;;;;;;9.57;4.20;;;;;;;18.60;80.02;99475.44;10294074;28;20138;-75
2022/06/13 23:03:21;;;;;;;7.55;4.22;;;;;;;18.63;80.18;99482.19;10294348;28;20038;-75
2022/06/13 23:08:22;;;;;;;11.48;4.25;;;;;;;18.78;80.79;99504.03;10293551;28;20431;-75
2022/06/13 23:13:23;;;;;;;8.55;4.28;;;;;;;19.52;81.07;99635.88;10294505;28;20046;-75
2022/06/13 23:18:26;;;;;;;5.13;3.53;;;;;;;19.39;81.37;99647.78;10293960;28;20108;-75
2022/06/13 23:23:27;;;;;;;5.53;3.35;;;;;;;19.18;81.09;99613.47;10293056;28;20132;-75
2022/06/13 23:28:28;;;;;;;7.40;3.60;;;;;;;19.37;81.30;99649.09;10293287;28;20128;-75
2022/06/13 23:33:28;;;;;;;7.22;3.80;;;;;;;19.32;81.22;99651.69;10293801;28;20610;-75
2022/06/13 23:38:29;;;;;;;7.95;3.83;;;;;;;18.57;81.74;99529.72;10292464;28;20419;-75
2022/06/13 23:43:30;;;;;;;9.50;4.40;;;;;;;19.41;81.93;99663.69;10293042;28;20035;-75
2022/06/13 23:48:31;;;;;;;7.65;3.88;;;;;;;17.89;82.37;99409.56;10292030;28;20046;-75
2022/06/13 23:53:32;;;;;;;6.18;3.90;;;;;;;19.43;82.87;99655.38;10292559;28;20545;-75
2022/06/13 23:58:33;;;;;;;12.80;4.50;;;;;;;19.19;83.15;99620.50;10291310;28;20051;-75
